createdAt,value
2022-12-03T00:02:37.099Z,13.70
2022-12-03T00:05:22.998Z,16.48
2022-12-03T00:08:08.355Z,13.38
2022-12-03T00:10:53.642Z,12.32
2022-12-03T00:13:39.033Z,10.52
2022-12-03T00:16:24.502Z,7.15
2022-12-03T00:19:10.242Z,11.25
2022-12-03T00:21:55.532Z,10.60
2022-12-03T00:24:40.844Z,7.78
2022-12-03T00:27:26.282Z,7.40
2022-12-03T00:30:12.805Z,10.18
2022-12-03T00:32:59.988Z,14.55
2022-12-03T00:35:47.254Z,7.22
2022-12-03T00:38:32.692Z,6.88
2022-12-03T00:41:18.076Z,8.10
2022-12-03T00:44:03.525Z,7.00
2022-12-03T00:46:49.208Z,12.20
2022-12-03T00:49:34.504Z,7.50
2022-12-03T00:52:20.138Z,4.70
2022-12-03T00:55:07.695Z,7.18
2022-12-03T00:57:53.203Z,12.10
2022-12-03T01:00:38.797Z,8.82
2022-12-03T01:03:24.453Z,7.65
2022-12-03T01:06:09.807Z,5.85
2022-12-03T01:08:55.372Z,6.85
2022-12-03T01:11:41.448Z,7.88
2022-12-03T01:14:27.563Z,6.22
2022-12-03T01:17:13.354Z,9.10
2022-12-03T01:19:59.267Z,9.15
2022-12-03T01:22:44.822Z,7.60
2022-12-03T01:25:30.617Z,5.25
2022-12-03T01:28:15.914Z,8.07
2022-12-03T01:31:19.541Z,5.18
2022-12-03T01:34:05.653Z,8.98
2022-12-03T01:36:52.628Z,8.13
2022-12-03T01:39:38.280Z,7.10
2022-12-03T01:42:36.512Z,11.18
2022-12-03T01:45:23.932Z,8.70
2022-12-03T01:48:13.627Z,5.30
2022-12-03T01:50:59.388Z,6.75
2022-12-03T01:53:46.080Z,6.65
2022-12-03T01:56:31.582Z,6.47
2022-12-03T01:59:20.163Z,10.70
2022-12-03T02:02:13.217Z,12.90
2022-12-03T02:05:00.302Z,6.05
2022-12-03T02:07:46.331Z,12.25
2022-12-03T02:10:36.297Z,12.15
2022-12-03T02:13:21.712Z,8.07
2022-12-03T02:16:07.986Z,6.50
2022-12-03T02:18:53.252Z,11.30
2022-12-03T02:21:57.108Z,7.70
2022-12-03T02:25:04.531Z,12.35
2022-12-03T02:27:53.196Z,11.95
2022-12-03T02:30:39.298Z,9.05
2022-12-03T02:33:24.959Z,14.65
2022-12-03T02:36:11.954Z,12.85
2022-12-03T02:38:57.825Z,9.30
2022-12-03T02:42:01.953Z,10.35
2022-12-03T02:44:47.653Z,8.25
2022-12-03T02:47:41.192Z,9.35
2022-12-03T02:50:32.421Z,8.43
2022-12-03T02:53:20.901Z,10.95
2022-12-03T02:56:06.980Z,6.47
2022-12-03T02:58:55.265Z,9.85
2022-12-03T03:01:41.230Z,7.05
2022-12-03T03:04:27.532Z,9.80
2022-12-03T03:07:13.542Z,8.27
2022-12-03T03:10:00.706Z,16.92
2022-12-03T03:12:46.594Z,13.45
2022-12-03T03:15:33.256Z,8.48
2022-12-03T03:18:19.127Z,10.23
2022-12-03T03:21:05.190Z,8.23
2022-12-03T03:23:50.636Z,8.43
2022-12-03T03:26:36.440Z,6.93
2022-12-03T03:29:22.162Z,9.40
2022-12-03T03:32:08.187Z,5.47
2022-12-03T03:34:54.094Z,4.38
2022-12-03T03:37:40.060Z,8.32
2022-12-03T03:40:27.150Z,3.13
2022-12-03T03:43:13.361Z,6.75
2022-12-03T03:45:59.148Z,4.55
2022-12-03T03:48:44.708Z,7.80
2022-12-03T03:51:32.975Z,4.30
2022-12-03T03:54:18.818Z,8.45
2022-12-03T03:57:06.067Z,7.03
2022-12-03T03:59:51.708Z,4.68
2022-12-03T04:02:38.398Z,3.97
2022-12-03T04:05:25.010Z,4.35
2022-12-03T04:08:10.424Z,6.47
2022-12-03T04:11:14.509Z,5.75
2022-12-03T04:14:00.125Z,6.35
2022-12-03T04:16:45.516Z,4.65
2022-12-03T04:19:31.351Z,6.32
2022-12-03T04:22:35.310Z,8.55
2022-12-03T04:25:39.408Z,3.25
2022-12-03T04:28:43.559Z,4.10
2022-12-03T04:31:47.579Z,4.40
2022-12-03T04:34:52.471Z,8.55
2022-12-03T04:37:38.189Z,5.65
2022-12-03T04:40:42.189Z,5.38
2022-12-03T04:43:29.054Z,5.28
2022-12-03T04:46:14.821Z,7.38
2022-12-03T04:49:00.327Z,6.75
2022-12-03T04:51:45.827Z,7.80
2022-12-03T04:54:31.115Z,4.07
2022-12-03T04:57:16.539Z,7.55
2022-12-03T05:00:02.704Z,3.55
2022-12-03T05:02:48.361Z,4.68
2022-12-03T05:05:34.034Z,10.73
2022-12-03T05:08:19.538Z,4.90
2022-12-03T05:11:05.035Z,7.07
2022-12-03T05:13:51.390Z,10.00
2022-12-03T05:16:37.284Z,7.78
2022-12-03T05:19:43.044Z,3.97
2022-12-03T05:22:28.857Z,9.07
2022-12-03T05:25:15.160Z,5.10
2022-12-03T05:28:00.535Z,7.10
2022-12-03T05:30:45.887Z,4.68
2022-12-03T05:33:31.620Z,8.13
2022-12-03T05:36:17.040Z,4.97
2022-12-03T05:39:02.523Z,6.55
2022-12-03T05:42:06.390Z,7.32
2022-12-03T05:44:52.108Z,3.47
2022-12-03T05:47:37.703Z,6.40
2022-12-03T05:50:25.567Z,5.75
2022-12-03T05:53:14.042Z,7.03
2022-12-03T05:55:59.430Z,6.30
2022-12-03T05:58:45.446Z,4.53
2022-12-03T06:01:30.689Z,6.10
2022-12-03T06:04:16.102Z,6.32
2022-12-03T06:07:01.455Z,5.20
2022-12-03T06:09:46.783Z,6.70
2022-12-03T06:12:32.474Z,9.10
2022-12-03T06:15:19.544Z,6.07
2022-12-03T06:18:05.010Z,10.10
2022-12-03T06:20:50.628Z,5.22
2022-12-03T06:23:37.407Z,9.45
2022-12-03T06:26:22.867Z,5.00
2022-12-03T06:29:08.245Z,4.50
2022-12-03T06:31:53.626Z,8.73
2022-12-03T06:34:39.073Z,5.07
2022-12-03T06:37:24.381Z,5.55
2022-12-03T06:40:10.379Z,9.73
2022-12-03T06:42:55.728Z,7.88
2022-12-03T06:45:46.220Z,7.43
2022-12-03T06:48:33.292Z,6.40
2022-12-03T06:51:18.678Z,4.65
2022-12-03T06:54:05.298Z,9.23
2022-12-03T06:56:50.887Z,6.43
2022-12-03T06:59:37.690Z,7.32
2022-12-03T07:02:23.400Z,6.22
2022-12-03T07:05:09.153Z,6.53
2022-12-03T07:07:55.613Z,5.53
2022-12-03T07:10:40.950Z,5.22
2022-12-03T07:13:26.299Z,7.53
2022-12-03T07:16:11.658Z,5.88
2022-12-03T07:18:56.937Z,4.95
2022-12-03T07:21:42.247Z,6.18
2022-12-03T07:24:27.743Z,7.35
2022-12-03T07:27:13.187Z,7.40
2022-12-03T07:29:58.430Z,5.22
2022-12-03T07:32:44.132Z,8.90
2022-12-03T07:35:29.337Z,3.70
2022-12-03T07:38:14.877Z,10.85
2022-12-03T07:41:00.225Z,5.00
2022-12-03T07:43:45.617Z,1.67
2022-12-03T07:46:30.993Z,3.92
2022-12-03T07:49:16.599Z,3.45
2022-12-03T07:52:02.105Z,5.43
2022-12-03T07:54:47.327Z,10.02
2022-12-03T07:57:32.658Z,7.40
2022-12-03T08:00:19.971Z,2.42
2022-12-03T08:03:05.258Z,6.45
2022-12-03T08:05:50.578Z,3.65
2022-12-03T08:08:36.495Z,7.93
2022-12-03T08:11:21.892Z,1.55
2022-12-03T08:14:15.170Z,4.22
2022-12-03T08:17:01.378Z,2.00
2022-12-03T08:19:47.992Z,6.40
2022-12-03T08:22:33.605Z,5.28
2022-12-03T08:25:24.964Z,4.57
2022-12-03T08:28:13.496Z,4.78
2022-12-03T08:31:20.870Z,5.15
2022-12-03T08:34:21.478Z,3.85
2022-12-03T08:37:16.473Z,3.63
2022-12-03T08:40:01.829Z,5.43
2022-12-03T08:42:47.448Z,4.40
2022-12-03T08:45:39.921Z,4.65
2022-12-03T08:48:27.429Z,2.80
2022-12-03T08:51:31.016Z,1.38
2022-12-03T08:54:20.267Z,3.72
2022-12-03T08:57:26.879Z,6.63
2022-12-03T09:00:22.092Z,3.17
2022-12-03T09:03:15.901Z,3.88
2022-12-03T09:06:01.569Z,4.90
2022-12-03T09:08:47.092Z,3.83
2022-12-03T09:11:32.506Z,7.03
2022-12-03T09:14:21.291Z,6.00
2022-12-03T09:17:06.847Z,1.90
2022-12-03T09:19:52.876Z,8.55
2022-12-03T09:22:38.556Z,1.65
2022-12-03T09:25:23.942Z,4.60
2022-12-03T09:28:09.429Z,2.83
2022-12-03T09:30:54.843Z,5.22
2022-12-03T09:33:40.737Z,2.83
2022-12-03T09:36:26.123Z,3.78
2022-12-03T09:39:11.804Z,4.47
2022-12-03T09:41:57.625Z,6.15
2022-12-03T09:44:44.299Z,5.82
2022-12-03T09:47:31.383Z,4.55
2022-12-03T09:50:20.831Z,5.38
2022-12-03T09:53:06.355Z,2.58
2022-12-03T09:55:52.001Z,2.65
2022-12-03T09:58:37.574Z,4.57
2022-12-03T10:01:25.820Z,4.78
2022-12-03T10:04:13.410Z,6.07
2022-12-03T10:06:59.356Z,8.13
2022-12-03T10:09:45.428Z,2.72
2022-12-03T10:12:30.847Z,2.35
2022-12-03T10:15:19.434Z,6.90
2022-12-03T10:18:21.704Z,8.88
2022-12-03T10:21:37.794Z,5.07
2022-12-03T10:24:25.985Z,5.97
2022-12-03T10:27:23.960Z,4.63
2022-12-03T10:30:20.492Z,4.13
2022-12-03T10:33:18.467Z,7.10
2022-12-03T10:36:26.716Z,2.25
2022-12-03T10:39:15.490Z,4.97
2022-12-03T10:42:16.157Z,3.17
2022-12-03T10:45:28.062Z,6.28
2022-12-03T10:48:21.016Z,3.20
2022-12-03T10:51:24.800Z,8.70
2022-12-03T10:54:17.243Z,3.67
2022-12-03T10:57:02.966Z,5.43
2022-12-03T10:59:48.592Z,4.38
2022-12-03T11:02:34.051Z,2.00
2022-12-03T11:05:26.779Z,2.67
2022-12-03T11:08:21.371Z,6.15
2022-12-03T11:11:21.028Z,5.32
2022-12-03T11:14:06.755Z,2.95
2022-12-03T11:16:51.937Z,4.45
2022-12-03T11:19:37.537Z,7.43
2022-12-03T11:22:27.209Z,6.40
2022-12-03T11:25:24.694Z,3.63
2022-12-03T11:28:13.057Z,4.95
2022-12-03T11:31:02.499Z,1.63
2022-12-03T11:33:48.261Z,1.25
2022-12-03T11:37:00.414Z,3.78
2022-12-03T11:39:45.699Z,1.50
2022-12-03T11:42:40.370Z,4.32
2022-12-03T11:45:33.546Z,1.25
2022-12-03T11:48:19.302Z,1.63
2022-12-03T11:51:13.766Z,1.25
2022-12-03T11:54:00.675Z,1.15
2022-12-03T11:56:49.533Z,1.17
2022-12-03T11:59:34.755Z,0.85
2022-12-03T12:02:20.835Z,3.60
2022-12-03T12:05:30.510Z,2.67
2022-12-03T12:08:19.668Z,3.22
2022-12-03T12:11:20.649Z,1.55
2022-12-03T12:14:13.514Z,1.23
2022-12-03T12:17:03.366Z,1.92
2022-12-03T12:19:54.240Z,0.80
2022-12-03T12:22:40.198Z,2.53
2022-12-03T12:25:41.055Z,0.45
2022-12-03T12:28:26.603Z,1.83
2022-12-03T12:31:12.278Z,4.85
2022-12-03T12:33:57.621Z,2.55
2022-12-03T12:36:42.866Z,1.90
2022-12-03T12:39:28.207Z,2.35
2022-12-03T12:42:25.684Z,4.38
2022-12-03T12:45:16.401Z,4.95
2022-12-03T12:48:22.953Z,2.92
2022-12-03T12:51:12.887Z,1.27
2022-12-03T12:53:58.515Z,4.93
2022-12-03T12:56:46.846Z,2.33
2022-12-03T12:59:32.942Z,1.52
2022-12-03T13:02:33.584Z,3.28
2022-12-03T13:05:19.251Z,5.45
2022-12-03T13:08:25.873Z,5.72
2022-12-03T13:11:34.645Z,1.52
2022-12-03T13:14:22.748Z,2.50
2022-12-03T13:17:15.942Z,5.25
2022-12-03T13:20:07.766Z,2.97
2022-12-03T13:22:53.679Z,5.28
2022-12-03T13:26:00.217Z,2.53
2022-12-03T13:28:44.677Z,1.75
2022-12-03T13:31:41.964Z,2.35
2022-12-03T13:34:33.969Z,3.28
2022-12-03T13:37:23.105Z,2.28
2022-12-03T13:40:22.063Z,1.45
2022-12-03T13:43:20.552Z,3.50
2022-12-03T13:46:05.905Z,3.40
2022-12-03T13:48:51.466Z,7.75
2022-12-03T13:51:36.856Z,7.05
2022-12-03T13:54:26.054Z,7.13
2022-12-03T13:57:12.500Z,4.68
2022-12-03T13:59:57.833Z,12.63
2022-12-03T14:02:43.777Z,8.10
2022-12-03T14:05:29.500Z,4.15
2022-12-03T14:08:15.002Z,3.75
2022-12-03T14:11:01.135Z,3.80
2022-12-03T14:13:46.839Z,5.63
2022-12-03T14:16:32.209Z,2.28
2022-12-03T14:19:17.647Z,7.40
2022-12-03T14:22:03.358Z,1.58
2022-12-03T14:24:49.280Z,5.65
2022-12-03T14:27:35.439Z,2.78
2022-12-03T14:30:20.935Z,3.38
2022-12-03T14:33:06.321Z,7.18
2022-12-03T14:35:56.370Z,1.20
2022-12-03T14:38:41.875Z,5.88
2022-12-03T14:41:45.975Z,2.38
2022-12-03T14:44:31.630Z,2.35
2022-12-03T14:47:20.296Z,6.13
2022-12-03T14:50:06.422Z,7.18
2022-12-03T14:52:51.938Z,5.38
2022-12-03T14:55:37.712Z,2.63
2022-12-03T14:58:23.538Z,6.82
2022-12-03T15:01:09.349Z,4.85
2022-12-03T15:03:54.834Z,6.93
2022-12-03T15:06:40.798Z,4.13
2022-12-03T15:09:26.630Z,4.78
2022-12-03T15:12:12.119Z,6.10
2022-12-03T15:14:57.609Z,2.95
2022-12-03T15:17:45.769Z,4.53
2022-12-03T15:20:33.439Z,7.90
2022-12-03T15:23:18.931Z,6.82
2022-12-03T15:26:04.262Z,16.40
2022-12-03T15:28:49.761Z,7.18
2022-12-03T15:31:35.570Z,4.03
2022-12-03T15:34:23.401Z,3.42
2022-12-03T15:37:09.240Z,3.63
2022-12-03T15:39:55.302Z,3.78
2022-12-03T15:42:40.826Z,2.53
2022-12-03T15:45:26.184Z,8.32
2022-12-03T15:48:13.598Z,3.42
2022-12-03T15:50:58.870Z,5.40
2022-12-03T15:53:44.563Z,6.47
2022-12-03T15:56:30.141Z,6.40
2022-12-03T15:59:15.577Z,3.60
2022-12-03T16:02:01.074Z,5.07
2022-12-03T16:04:46.929Z,9.05
2022-12-03T16:07:32.828Z,11.13
2022-12-03T16:10:21.498Z,8.25
2022-12-03T16:13:06.860Z,7.07
2022-12-03T16:15:54.345Z,6.22
2022-12-03T16:18:39.750Z,10.15
2022-12-03T16:21:27.352Z,8.50
2022-12-03T16:24:12.941Z,11.13
2022-12-03T16:26:58.695Z,7.13
2022-12-03T16:29:44.539Z,8.27
2022-12-03T16:32:29.929Z,6.10
2022-12-03T16:35:15.215Z,11.02
2022-12-03T16:38:00.730Z,14.82
2022-12-03T16:40:46.104Z,14.68
2022-12-03T16:43:34.196Z,12.95
2022-12-03T16:46:26.354Z,11.43
2022-12-03T16:49:12.315Z,10.05
2022-12-03T16:51:58.076Z,11.27
2022-12-03T16:54:43.699Z,14.73
2022-12-03T16:57:33.722Z,14.25
2022-12-03T17:00:21.950Z,15.88
2022-12-03T17:03:07.646Z,13.75
2022-12-03T17:05:53.452Z,12.52
2022-12-03T17:08:40.317Z,10.48
2022-12-03T17:11:27.152Z,9.57
2022-12-03T17:14:12.742Z,10.70
2022-12-03T17:16:58.557Z,7.30
2022-12-03T17:19:44.183Z,7.65
2022-12-03T17:22:31.033Z,8.02
2022-12-03T17:25:16.858Z,11.82
2022-12-03T17:28:02.593Z,9.57
2022-12-03T17:30:48.426Z,16.02
2022-12-03T17:33:33.857Z,13.95
2022-12-03T17:36:19.371Z,20.02
2022-12-03T17:39:04.573Z,22.00
2022-12-03T17:41:49.964Z,34.90
2022-12-03T17:44:35.323Z,24.65
2022-12-03T17:47:20.609Z,10.88
2022-12-03T17:50:07.556Z,13.20
2022-12-03T17:52:52.886Z,9.93
2022-12-03T17:55:44.741Z,15.77
2022-12-03T17:58:30.765Z,14.95
2022-12-03T18:01:18.251Z,12.98
2022-12-03T18:04:04.633Z,8.18
2022-12-03T18:06:50.465Z,10.05
2022-12-03T18:09:35.857Z,16.23
2022-12-03T18:12:21.337Z,12.35
2022-12-03T18:15:07.548Z,12.27
2022-12-03T18:17:53.480Z,14.68
2022-12-03T18:20:39.151Z,21.60
2022-12-03T18:23:24.431Z,32.88
2022-12-03T18:26:09.955Z,12.73
2022-12-03T18:28:55.448Z,9.13
2022-12-03T18:31:40.915Z,13.85
2022-12-03T18:34:26.477Z,11.10
2022-12-03T18:37:16.434Z,14.43
2022-12-03T18:40:12.105Z,11.77
2022-12-03T18:42:58.558Z,10.25
2022-12-03T18:45:44.113Z,11.85
2022-12-03T18:48:29.904Z,13.35
2022-12-03T18:51:23.670Z,17.20
2022-12-03T18:54:13.851Z,12.82
2022-12-03T18:56:59.329Z,7.05
2022-12-03T18:59:44.737Z,6.05
2022-12-03T19:03:01.369Z,8.13
2022-12-03T19:05:36.540Z,11.45
2022-12-03T19:08:21.879Z,9.77
2022-12-03T19:11:07.957Z,10.18
2022-12-03T19:13:53.636Z,9.18
2022-12-03T19:16:40.662Z,10.80
2022-12-03T19:19:27.445Z,12.02
2022-12-03T19:22:12.906Z,10.35
2022-12-03T19:24:58.278Z,12.20
2022-12-03T19:27:43.710Z,12.20
2022-12-03T19:30:29.125Z,17.92
2022-12-03T19:33:18.062Z,10.57
2022-12-03T19:36:05.977Z,15.65
2022-12-03T19:38:56.853Z,10.32
2022-12-03T19:41:44.792Z,7.63
2022-12-03T19:44:30.856Z,7.78
2022-12-03T19:47:16.683Z,10.00
2022-12-03T19:50:03.212Z,7.95
2022-12-03T19:52:48.584Z,12.70
2022-12-03T19:55:35.108Z,15.57
2022-12-03T19:58:21.656Z,12.63
2022-12-03T20:01:21.476Z,12.23
2022-12-03T20:04:08.507Z,8.68
2022-12-03T20:06:53.779Z,11.48
2022-12-03T20:09:39.199Z,9.00
2022-12-03T20:12:24.615Z,10.82
2022-12-03T20:15:10.956Z,6.95
2022-12-03T20:17:56.417Z,10.70
2022-12-03T20:20:41.888Z,11.90
2022-12-03T20:23:28.341Z,18.00
2022-12-03T20:26:17.332Z,13.15
2022-12-03T20:29:03.151Z,11.63
2022-12-03T20:31:48.875Z,6.72
2022-12-03T20:34:36.090Z,7.85
2022-12-03T20:37:21.520Z,7.93
2022-12-03T20:40:07.456Z,9.52
2022-12-03T20:42:53.238Z,9.77
2022-12-03T20:45:38.884Z,12.93
2022-12-03T20:48:24.037Z,10.88
2022-12-03T20:51:17.356Z,18.90
2022-12-03T20:54:03.533Z,14.15
2022-12-03T20:56:49.011Z,13.32
2022-12-03T20:59:34.229Z,9.57
2022-12-03T21:02:19.730Z,25.75
2022-12-03T21:05:06.879Z,12.10
2022-12-03T21:07:52.510Z,11.23
2022-12-03T21:10:45.260Z,14.15
2022-12-03T21:13:32.456Z,13.27
2022-12-03T21:16:45.446Z,18.88
2022-12-03T21:19:29.978Z,8.73
2022-12-03T21:22:15.560Z,18.35
2022-12-03T21:25:00.837Z,11.77
2022-12-03T21:27:46.242Z,10.10
2022-12-03T21:30:32.598Z,14.80
2022-12-03T21:33:17.930Z,23.02
2022-12-03T21:36:04.054Z,12.00
2022-12-03T21:38:49.305Z,12.55
2022-12-03T21:41:38.009Z,11.57
2022-12-03T21:44:23.644Z,9.60
2022-12-03T21:47:14.270Z,8.55
2022-12-03T21:50:00.045Z,13.48
2022-12-03T21:52:45.254Z,14.10
2022-12-03T21:55:30.575Z,16.00
2022-12-03T21:58:15.932Z,14.98
2022-12-03T22:01:01.334Z,13.80
2022-12-03T22:03:47.235Z,13.07
2022-12-03T22:06:32.446Z,13.43
2022-12-03T22:09:20.538Z,15.15
2022-12-03T22:12:10.228Z,12.13
2022-12-03T22:14:57.252Z,17.02
2022-12-03T22:17:42.630Z,17.77
2022-12-03T22:20:28.602Z,12.43
2022-12-03T22:23:13.890Z,11.63
2022-12-03T22:26:01.661Z,9.65
2022-12-03T22:28:49.550Z,7.50
2022-12-03T22:31:35.134Z,10.13
2022-12-03T22:34:21.028Z,6.35
2022-12-03T22:37:06.925Z,12.98
2022-12-03T22:39:52.309Z,10.20
2022-12-03T22:42:38.086Z,8.43
2022-12-03T22:45:23.600Z,10.35
2022-12-03T22:48:08.838Z,5.90
2022-12-03T22:50:54.253Z,8.15
2022-12-03T22:53:39.585Z,9.55
2022-12-03T22:56:26.381Z,8.20
2022-12-03T22:59:11.904Z,4.45
2022-12-03T23:01:57.140Z,7.00
2022-12-03T23:04:42.578Z,16.02
2022-12-03T23:07:27.825Z,5.68
2022-12-03T23:10:13.022Z,9.93
2022-12-03T23:12:58.435Z,13.43
2022-12-03T23:15:49.756Z,7.30
2022-12-03T23:18:35.200Z,8.47
2022-12-03T23:21:28.995Z,9.10
2022-12-03T23:24:15.459Z,10.52
2022-12-03T23:27:00.856Z,8.25
2022-12-03T23:29:46.432Z,11.18
2022-12-03T23:32:32.129Z,15.82
2022-12-03T23:35:17.392Z,6.55
2022-12-03T23:38:02.927Z,17.17
2022-12-03T23:40:48.677Z,7.38
2022-12-03T23:43:34.626Z,9.02
2022-12-03T23:46:24.209Z,6.68
2022-12-03T23:49:09.791Z,8.30
2022-12-03T23:51:55.200Z,8.55
2022-12-03T23:54:40.668Z,6.35
2022-12-03T23:57:26.016Z,7.90
